Rock Hill, SC

01:48 PM EDT on Απρίλιος 01, 2015 (GMT -0400)
Winthrop University | | Change Station
CLOSE
Current Station
Personal Weather Stations
Location: Rock Hill, SC
Elevation: 665 ft
Nearby Weather Stations

Elev 665 ft 34.94 °N, 81.03 °W | Updated 1 second ago

Αίθριος
Αίθριος
70.1 ° F
Feels Like 75 ° F
N
2.0
Ανεμος Μεταβλητός Ανεμος from ΑΒΑ
Gusts 2.0 mph

Σήμερα
High -- | Low -- ° F
--% Chance of Precip.
Yesterday
High -- | Low -- ° F
Precip. -- in
7:11 AM 7:45 PM
Αμφίκυρτος, 93% visible
Ατμοσφαιρική Πίεση 30.07 in
Ορατότητα 10.0 Μίλια
Σύννεφα Αίθριος
Δείκτης Δυσφορίας 75 ° F
Σημείο Δρόσου 33 ° F
Υγρασία 25%
Rainfall 0.00 in
Snow Depth Not available.
Υπεριώδης ακτινοβολία (UV) 9 out of 12
Pollen 10.60 out of 12
Air Quality Not available.
Flu Activity Not available.
METAR KUZA 011654Z AUTO VRB03KT 10SM CLR 20/01 A3009 RMK AO2 SLP182 T02000006

More Conditions Fewer Conditions

Ατμοσφαιρική Πίεση 30.07 in
Ορατότητα 10.0 Μίλια
Σύννεφα Αίθριος
Δείκτης Δυσφορίας 75 ° F
Σημείο Δρόσου 33 ° F
Υγρασία 25%
Rainfall 0.00 in
Snow Depth Not available.
Υπεριώδης ακτινοβολία (UV) 9 out of 12
Pollen 10.60 out of 12
Air Quality Not available.
Flu Activity Not available.
METAR KUZA 011654Z AUTO VRB03KT 10SM CLR 20/01 A3009 RMK AO2 SLP182 T02000006

More Conditions Fewer Conditions

10-Day Weather Forecast

Almanac

Αστρονομία

Apr. 01, 2015 Rise Set
Actual Time
Civil Twilight
Nautical Twilight
Astronomical Twilight
Moon
Length Of Visible Light
Διάρκεια ημέρας
Tomorrow will be .
, % of the Moon is Illuminated

Today's Extremes

State Highs State Lows

Community

WunderPhotos

Upload Photos

1,810,018 photos uploaded!

WunderBlogs® & News

Nearby

Air Quality

  Air Quality AQ Index Pollutant
Not available.

Snow Depth

Station Depth Elevation

Earthquake Activity

City Distance Mag. Time & Date
Minimum magnitude displayed is 2.5.

Coastal Water Temperatures

Τοποθεσία Θερμοκρασία

Stations

Nearby Weather Stations

Station Location Temp Δείκτης Ψυχρότητας Σημείο Δρόσου Υγρασία Ανεμος Precip. Elev Ενημερώθηκε Type